Time;durP1;ratioP1;P1;durP2;ratioP2;P2;SDS_P1;SDS_P2;PMS_P1;PMS_P2;Temp;Humidity;BMP_temperature;BMP_pressure;BME280_temperature;BME280_humidity;BME280_pressure;Samples;Min_cycle;Max_cycle;Signal;HPM_P1;HPM_P2
2022/05/21 11:53:51;;;;;;;2.30;2.07;;;;;;;11.18;38.46;101155.41;5106525;23;20415;-78
2022/05/21 11:56:17;;;;;;;3.37;1.80;;;;;;;11.33;38.89;101174.34;4972738;28;20445;-76
2022/05/21 11:58:58;;;;;;;2.83;2.23;;;;;;;11.38;37.79;101180.03;4974074;28;20050;-75
2022/05/21 12:01:47;;;;;;;5.67;2.20;;;;;;;11.29;38.33;101168.50;4972461;28;20031;-75
2022/05/21 12:04:42;;;;;;;3.10;2.37;;;;;;;11.35;37.72;101173.19;4931035;28;20047;-77
2022/05/21 12:07:14;;;;;;;5.23;2.50;;;;;;;11.25;37.07;101180.44;4972687;28;20167;-75
2022/05/21 12:09:58;;;;;;;4.40;2.47;;;;;;;11.12;37.00;101158.72;4973163;28;20093;-75
2022/05/21 12:12:24;;;;;;;3.17;2.10;;;;;;;11.08;36.78;101162.69;4956715;28;20541;-74
2022/05/21 12:15:16;;;;;;;7.50;2.00;;;;;;;11.09;37.11;101169.69;4973798;28;20035;-74
2022/05/21 12:18:03;;;;;;;5.13;2.17;;;;;;;11.18;37.09;101171.41;4963362;28;20054;-72
2022/05/21 12:20:48;;;;;;;4.00;2.10;;;;;;;11.25;37.29;101159.13;4958070;28;20046;-67
2022/05/21 12:23:40;;;;;;;5.60;2.50;;;;;;;11.44;36.46;101169.56;4977128;28;20097;-66
2022/05/21 12:26:18;;;;;;;7.13;2.47;;;;;;;11.25;35.98;101161.78;4966522;28;20050;-68
2022/05/21 12:29:09;;;;;;;3.73;2.03;;;;;;;11.21;36.58;101152.44;4976755;28;20129;-66
2022/05/21 12:31:47;;;;;;;3.70;1.93;;;;;;;11.21;36.71;101167.59;4976777;28;20389;-67
2022/05/21 12:34:12;;;;;;;3.75;2.10;;;;;;;11.28;36.95;101163.31;4976911;28;20054;-65
2022/05/21 12:36:56;;;;;;;3.77;2.17;;;;;;;11.29;37.61;101168.50;4976623;28;20438;-67
2022/05/21 12:39:28;;;;;;;5.23;2.43;;;;;;;11.20;37.20;101164.09;4976970;28;20039;-69
2022/05/21 12:41:58;;;;;;;4.13;2.70;;;;;;;10.89;36.67;101114.91;4976970;28;20034;-68
2022/05/21 12:44:43;;;;;;;4.97;2.70;;;;;;;11.16;37.08;101173.41;4976860;28;20041;-70
2022/05/21 12:47:44;;;;;;;15.27;3.97;;;;;;;11.08;36.00;101174.19;4976917;28;20043;-67
2022/05/21 12:50:20;;;;;;;13.77;3.73;;;;;;;11.14;36.89;101152.22;4947672;28;20043;-68
2022/05/21 12:52:46;;;;;;;3.70;2.20;;;;;;;11.26;36.46;101155.47;4977001;28;20047;-70
2022/05/21 12:55:18;;;;;;;4.77;3.00;;;;;;;11.26;36.45;101154.63;4936867;28;20479;-70
2022/05/21 12:57:55;;;;;;;3.23;2.50;;;;;;;11.29;35.90;101157.84;4937994;29;20530;-71
2022/05/21 13:00:24;;;;;;;7.40;4.23;;;;;;;11.36;35.69;101131.38;4938431;29;20054;-72
2022/05/21 13:02:54;;;;;;;4.28;2.58;;;;;;;11.28;35.72;101140.16;4938038;29;20135;-69
2022/05/21 13:05:28;;;;;;;6.03;3.13;;;;;;;11.26;36.49;101152.78;4937913;29;20042;-67
2022/05/21 13:08:01;;;;;;;7.87;2.93;;;;;;;11.36;36.27;101155.38;4937818;29;20039;-69
2022/05/21 13:10:39;;;;;;;6.53;2.40;;;;;;;11.34;36.86;101147.53;4937860;29;20531;-72
2022/05/21 13:13:07;;;;;;;3.75;2.60;;;;;;;11.05;36.85;101107.03;4937978;29;20086;-70
2022/05/21 13:15:38;;;;;;;6.20;2.50;;;;;;;11.11;35.70;101125.06;4937872;29;20055;-70
2022/05/21 13:18:09;;;;;;;2.13;1.90;;;;;;;11.20;36.50;101145.44;4937666;29;20039;-68
2022/05/21 13:35:31;;;;;;;3.90;2.60;;;;;;;11.29;37.65;101130.34;4937598;29;20115;-69
2022/05/21 13:37:57;;;;;;;5.38;2.35;;;;;;;11.34;38.11;101136.88;4937256;29;20459;-71
2022/05/21 16:06:12;;;;;;;4.10;2.50;;;;;;;11.18;36.94;101099.44;4512532;26;20051;-71
2022/05/21 16:08:41;;;;;;;3.07;1.90;;;;;;;11.34;36.67;101107.53;4913032;29;20052;-63
2022/05/21 16:11:32;;;;;;;5.37;2.73;;;;;;;11.09;36.00;101026.59;4926839;29;20174;-67
2022/05/21 16:14:01;;;;;;;2.73;2.07;;;;;;;11.62;36.29;101094.81;4934562;29;20043;-63
2022/05/21 16:16:28;;;;;;;5.60;2.53;;;;;;;11.74;35.63;101104.19;4934545;28;20066;-66
2022/05/21 16:18:54;;;;;;;4.00;2.47;;;;;;;11.80;35.91;101092.06;4933524;29;20121;-67
2022/05/21 16:21:27;;;;;;;2.63;2.27;;;;;;;11.77;35.46;101073.66;4934639;29;20043;-67
2022/05/21 16:23:56;;;;;;;5.67;2.50;;;;;;;11.86;35.47;101082.59;4934660;29;20031;-65
2022/05/21 16:29:07;;;;;;;4.50;2.33;;;;;;;11.86;35.33;101051.41;4934438;29;20039;-67
2022/05/21 16:31:33;;;;;;;4.10;3.20;;;;;;;12.18;35.44;101087.16;4934483;29;20059;-66
2022/05/21 16:33:59;;;;;;;4.67;2.83;;;;;;;12.20;35.14;101069.13;4933933;29;20052;-67
2022/05/21 16:36:27;;;;;;;2.80;2.13;;;;;;;12.37;34.85;101084.97;4932924;29;20071;-64
2022/05/21 16:38:53;;;;;;;6.53;2.20;;;;;;;12.23;34.34;101074.13;4934352;29;20506;-65
2022/05/21 16:41:18;;;;;;;4.20;2.77;;;;;;;12.16;34.51;101090.00;4934047;28;20051;-65
2022/05/21 16:43:44;;;;;;;3.30;2.63;;;;;;;12.08;34.59;101098.78;4933707;29;20154;-64
2022/05/21 16:46:14;;;;;;;4.47;2.40;;;;;;;11.79;35.05;101043.19;4934209;29;20031;-63
2022/05/21 16:48:44;;;;;;;3.57;2.67;;;;;;;12.20;35.01;101091.31;4934233;29;20134;-63
2022/05/21 16:51:10;;;;;;;2.40;2.20;;;;;;;12.17;34.86;101098.84;4934499;29;20403;-66
2022/05/21 16:53:36;;;;;;;6.07;2.20;;;;;;;12.08;35.12;101084.63;4934284;28;20171;-67
2022/05/21 16:56:01;;;;;;;3.77;2.33;;;;;;;11.92;34.93;101074.75;4933373;29;20123;-67
2022/05/21 16:58:27;;;;;;;5.63;2.57;;;;;;;11.87;35.31;101095.75;4934123;29;20142;-65
2022/05/21 17:00:56;;;;;;;6.60;3.70;;;;;;;11.90;35.69;101084.75;4933774;29;20043;-67
2022/05/21 17:03:25;;;;;;;7.07;3.47;;;;;;;11.44;36.00;101059.41;4933515;29;20035;-66
2022/05/21 17:05:51;;;;;;;;;;;;;;;11.40;35.74;101088.22;4932760;29;20541;-69
2022/05/21 17:08:17;;;;;;;4.30;3.10;;;;;;;11.13;36.44;101101.75;4949846;29;19922;-71
2022/05/21 17:10:43;;;;;;;4.57;3.07;;;;;;;10.93;36.95;101092.28;4956675;28;20418;-69
2022/05/21 17:13:10;;;;;;;5.67;2.73;;;;;;;10.74;36.95;101070.19;4957254;29;20036;-72
2022/05/21 17:15:36;;;;;;;3.17;2.50;;;;;;;10.78;37.09;101098.19;4956990;29;20039;-71
2022/05/21 17:18:02;;;;;;;4.40;2.17;;;;;;;10.78;37.09;101098.19;4939631;29;20086;-71
2022/05/21 17:20:28;;;;;;;6.37;2.87;;;;;;;10.44;37.47;101075.97;4957188;28;20039;-67
2022/05/21 17:22:53;;;;;;;4.10;2.97;;;;;;;10.40;38.25;101099.38;4957226;29;20102;-68
2022/05/21 17:25:19;;;;;;;5.07;3.07;;;;;;;10.13;38.93;101078.16;4956711;28;20505;-69
2022/05/21 17:30:28;;;;;;;6.03;3.20;;;;;;;9.99;39.32;101100.78;4966011;29;20035;-70
2022/05/21 17:33:00;;;;;;;3.10;2.57;;;;;;;9.82;39.87;101082.97;4958615;28;20087;-69
2022/05/21 17:35:32;;;;;;;3.30;2.30;;;;;;;9.78;39.46;101092.22;4955734;28;20462;-69
2022/05/21 17:38:01;;;;;;;3.67;2.10;;;;;;;9.43;40.07;101051.28;4956232;29;20039;-69
2022/05/21 17:40:28;;;;;;;2.50;1.93;;;;;;;9.66;40.23;101093.44;4956788;28;20518;-67
2022/05/21 17:42:53;;;;;;;5.83;3.00;;;;;;;9.47;40.98;101083.72;4956773;28;20039;-65
2022/05/21 17:45:21;;;;;;;2.40;2.20;;;;;;;9.07;41.14;101033.56;4957446;28;20037;-67
2022/05/21 17:47:48;;;;;;;2.83;2.20;;;;;;;9.27;41.58;101083.00;4964302;28;20465;-69
2022/05/21 17:50:23;;;;;;;4.67;3.70;;;;;;;9.20;41.39;101069.44;4959472;28;20054;-65
2022/05/21 17:52:49;;;;;;;2.27;2.00;;;;;;;9.04;42.30;101063.91;4958205;28;20035;-66
2022/05/21 17:55:15;;;;;;;3.07;2.20;;;;;;;9.15;42.40;101084.13;4962559;29;20046;-66
2022/05/21 17:57:41;;;;;;;4.23;3.00;;;;;;;9.06;42.20;101098.31;4973005;29;20043;-68
2022/05/21 18:00:12;;;;;;;3.63;2.23;;;;;;;8.91;42.44;101088.13;4972777;29;20039;-68
2022/05/21 18:02:41;;;;;;;2.53;2.20;;;;;;;8.87;42.72;101092.06;4956147;29;20070;-67
2022/05/21 18:05:08;;;;;;;2.80;2.60;;;;;;;8.78;43.43;101090.25;4946757;29;20075;-66
2022/05/21 18:07:34;;;;;;;5.10;2.77;;;;;;;8.65;43.47;101074.63;4943015;29;20051;-72
2022/05/21 18:10:02;;;;;;;3.47;2.53;;;;;;;8.64;43.82;101080.91;4957759;29;20051;-73
2022/05/21 18:12:28;;;;;;;4.55;2.58;;;;;;;8.62;44.34;101090.00;4957923;29;20048;-66
2022/05/21 18:14:55;;;;;;;11.97;3.13;;;;;;;8.47;44.43;101072.84;4958116;29;20521;-70
2022/05/21 18:20:05;;;;;;;5.60;2.30;;;;;;;8.44;44.28;101091.72;4956004;28;20063;-67
2022/05/21 18:22:32;;;;;;;3.07;2.40;;;;;;;8.41;44.17;101092.00;4955870;28;20063;-68
2022/05/21 18:24:58;;;;;;;4.60;2.80;;;;;;;8.34;44.87;101105.81;4938817;29;20039;-66
2022/05/21 18:27:23;;;;;;;2.87;2.57;;;;;;;8.27;44.87;101096.69;4955752;28;20521;-68
2022/05/21 18:29:49;;;;;;;4.27;3.17;;;;;;;8.24;45.01;101099.63;4955484;28;20054;-66
2022/05/21 18:32:21;;;;;;;4.73;3.07;;;;;;;8.16;45.61;101096.84;4955746;28;20039;-69
2022/05/21 18:34:47;;;;;;;2.83;2.27;;;;;;;8.01;45.54;101079.66;4938522;29;20522;-68
2022/05/21 18:37:13;;;;;;;3.73;2.60;;;;;;;7.14;45.32;100961.06;4955593;29;20130;-72
2022/05/21 18:39:38;;;;;;;5.33;3.27;;;;;;;7.98;46.44;101093.19;4955986;29;20074;-68
2022/05/21 18:42:04;;;;;;;4.87;2.43;;;;;;;7.94;46.22;101095.28;4955687;28;20054;-67
2022/05/21 18:44:30;;;;;;;4.13;2.77;;;;;;;7.77;46.33;101074.72;4938377;28;20082;-67
2022/05/21 18:46:56;;;;;;;4.83;2.70;;;;;;;7.70;46.86;101068.28;4955278;28;20390;-66
2022/05/21 18:49:21;;;;;;;3.50;2.00;;;;;;;7.73;46.45;101095.38;4954605;29;20039;-68
2022/05/21 18:51:47;;;;;;;2.90;2.60;;;;;;;7.77;46.98;101109.19;4937880;29;20122;-64
2022/05/21 18:54:12;;;;;;;5.67;2.60;;;;;;;7.59;47.32;101068.41;4955515;28;20035;-70
2022/05/21 18:56:38;;;;;;;3.00;2.40;;;;;;;7.73;47.09;101103.31;4955381;29;20071;-67
2022/05/21 18:59:04;;;;;;;5.03;3.00;;;;;;;7.69;47.62;101099.28;4938322;28;20501;-70
2022/05/21 19:01:31;;;;;;;6.20;2.67;;;;;;;7.61;47.16;101091.16;4938352;29;20043;-65
2022/05/21 19:03:59;;;;;;;2.77;2.13;;;;;;;7.54;47.15;101084.75;4955461;29;20042;-67
2022/05/21 19:06:25;;;;;;;3.23;2.50;;;;;;;7.55;47.28;101093.53;4938454;29;20043;-68
2022/05/21 19:08:53;;;;;;;4.17;2.43;;;;;;;7.39;48.12;101081.59;4954822;28;20332;-66
2022/05/21 19:11:18;;;;;;;4.33;2.30;;;;;;;7.42;48.53;101097.22;4954957;29;20125;-65
2022/05/21 19:13:46;;;;;;;2.63;2.33;;;;;;;7.29;48.76;101079.91;4954968;28;20490;-67
2022/05/21 19:16:36;;;;;;;3.73;2.47;;;;;;;7.23;48.62;101083.94;4955266;29;20079;-66
2022/05/21 19:19:11;;;;;;;4.43;2.70;;;;;;;7.24;49.13;101092.72;4955672;29;20066;-68
2022/05/21 19:21:51;;;;;;;4.83;2.40;;;;;;;7.25;49.34;101089.94;4942038;29;20042;-70
2022/05/21 19:24:21;;;;;;;7.13;4.00;;;;;;;7.04;49.73;101071.44;4960004;28;20070;-68
2022/05/21 19:26:50;;;;;;;3.53;2.87;;;;;;;7.08;50.43;101083.44;4956279;29;20415;-68
2022/05/21 19:29:17;;;;;;;5.87;3.50;;;;;;;7.04;50.11;101081.19;4954898;28;20047;-66
2022/05/21 19:31:43;;;;;;;2.90;2.50;;;;;;;6.95;50.23;101080.16;4954692;28;20037;-67
2022/05/21 19:34:08;;;;;;;3.33;2.40;;;;;;;6.86;50.50;101073.00;4936784;29;20043;-68
2022/05/21 19:36:34;;;;;;;7.93;3.30;;;;;;;7.03;51.04;101106.81;4954582;28;20031;-68
2022/05/21 19:41:11;;;;;;;4.43;3.27;;;;;;;7.00;51.39;101112.38;4954245;28;20554;-67
2022/05/21 19:41:46;;;;;;;4.03;2.80;;;;;;;6.97;51.07;101109.16;4954051;28;20050;-66
2022/05/21 19:44:11;;;;;;;2.97;2.30;;;;;;;6.70;51.33;101076.13;4954145;28;20069;-66
2022/05/21 19:46:37;;;;;;;6.10;2.97;;;;;;;6.88;51.54;101121.34;4952775;28;20058;-71
2022/05/21 19:49:02;;;;;;;4.50;2.60;;;;;;;6.26;51.70;101005.78;4954236;28;20032;-68
2022/05/21 19:51:28;;;;;;;4.73;3.10;;;;;;;6.77;51.89;101101.09;4938040;29;20085;-67
2022/05/21 19:53:57;;;;;;;3.60;2.60;;;;;;;6.71;52.70;101098.13;4937454;29;20039;-69
2022/05/21 19:56:23;;;;;;;3.67;2.70;;;;;;;6.78;52.60;101113.34;4955156;28;20037;-69
2022/05/21 19:58:51;;;;;;;5.77;3.00;;;;;;;6.63;53.05;101097.91;4921503;29;20131;-64
2022/05/21 20:01:16;;;;;;;3.60;2.58;;;;;;;6.71;52.42;101114.00;4953793;28;20489;-66
2022/05/21 20:03:45;;;;;;;3.83;2.50;;;;;;;6.60;53.11;101106.13;4953901;29;20035;-66
2022/05/21 20:06:10;;;;;;;3.38;2.65;;;;;;;6.51;53.49;101095.34;4953851;28;20062;-66
2022/05/21 20:08:38;;;;;;;3.47;2.37;;;;;;;6.64;53.54;101118.97;4917564;29;20162;-65
2022/05/21 20:11:06;;;;;;;4.32;2.80;;;;;;;6.46;53.84;101089.59;4933309;29;20043;-64
2022/05/21 20:13:34;;;;;;;3.93;2.73;;;;;;;6.42;53.87;101084.69;4933888;29;20495;-67
2022/05/21 20:16:00;;;;;;;3.73;3.10;;;;;;;6.56;54.46;101110.00;4935863;29;20036;-70
2022/05/21 20:18:28;;;;;;;5.90;3.07;;;;;;;6.53;54.51;101119.03;4940217;29;20071;-67
2022/05/21 20:20:53;;;;;;;6.77;3.00;;;;;;;6.47;54.80;101103.66;4940334;29;20039;-67
2022/05/21 20:23:19;;;;;;;3.67;2.90;;;;;;;6.51;55.09;101111.22;4938869;29;20036;-66
2022/05/21 20:25:46;;;;;;;3.80;2.83;;;;;;;6.43;54.64;101107.53;4935611;29;20036;-66
2022/05/21 20:28:13;;;;;;;2.87;2.57;;;;;;;6.49;54.67;101125.53;4934234;29;20395;-65
2022/05/21 20:30:39;;;;;;;5.90;3.00;;;;;;;6.38;55.28;101104.44;4933462;29;20035;-66
2022/05/21 20:33:05;;;;;;;4.07;3.10;;;;;;;6.32;55.47;101100.47;4934974;29;20517;-69
2022/05/21 20:35:33;;;;;;;3.00;2.70;;;;;;;6.41;55.78;101120.91;4936088;29;20036;-66
2022/05/21 20:37:59;;;;;;;3.83;3.43;;;;;;;6.36;55.91;101115.16;4936927;29;20032;-64
2022/05/21 20:40:25;;;;;;;5.73;3.20;;;;;;;6.32;56.50;101111.06;4939843;29;20035;-68
2022/05/21 20:42:51;;;;;;;3.87;2.77;;;;;;;6.32;56.26;101116.34;4923006;29;20047;-67
2022/05/21 20:45:16;;;;;;;6.60;2.63;;;;;;;6.31;56.30;101117.31;4943257;29;20447;-66
2022/05/21 20:50:35;;;;;;;4.47;3.00;;;;;;;6.33;56.75;101112.72;4923277;29;20052;-65
2022/05/21 20:53:01;;;;;;;5.63;2.77;;;;;;;6.20;56.57;101097.06;4938515;29;20038;-67
2022/05/21 20:55:27;;;;;;;3.27;2.60;;;;;;;6.27;57.26;101112.41;4938118;29;20055;-66
2022/05/21 20:57:53;;;;;;;3.50;2.87;;;;;;;6.23;57.07;101101.25;4937091;29;20032;-68
2022/05/21 21:00:20;;;;;;;4.60;2.70;;;;;;;6.09;57.42;101096.25;4938183;29;20035;-65
2022/05/21 21:02:46;;;;;;;6.30;3.13;;;;;;;6.14;57.42;101102.84;4938220;29;20042;-68
2022/05/21 21:05:11;;;;;;;7.60;3.30;;;;;;;6.21;57.58;101119.88;4938107;29;20040;-68
2022/05/21 21:07:38;;;;;;;4.40;3.03;;;;;;;6.21;57.43;101113.75;4945581;29;20110;-67
2022/05/21 21:10:03;;;;;;;3.83;3.30;;;;;;;6.05;57.25;101081.59;4956915;28;20101;-66
2022/05/21 21:12:29;;;;;;;8.33;2.67;;;;;;;6.18;57.71;101103.44;4939808;29;20537;-66
2022/05/21 21:14:54;;;;;;;3.57;2.60;;;;;;;6.16;57.64;101106.19;4957424;29;20031;-68
2022/05/21 21:17:20;;;;;;;6.83;2.73;;;;;;;6.16;57.49;101116.78;4957499;28;20043;-66
2022/05/21 21:19:47;;;;;;;4.40;2.80;;;;;;;6.01;57.47;101091.56;4957197;28;20043;-68
2022/05/21 21:22:12;;;;;;;5.87;3.10;;;;;;;6.12;58.05;101119.81;4956996;28;20458;-68
2022/05/21 21:24:38;;;;;;;5.97;3.13;;;;;;;5.99;57.66;101090.03;4956735;28;20122;-68
2022/05/21 21:27:04;;;;;;;5.43;3.03;;;;;;;6.05;57.65;101108.88;4956586;28;20050;-67
2022/05/21 21:29:30;;;;;;;3.93;3.57;;;;;;;6.07;57.67;101108.75;4956512;29;20074;-66
2022/05/21 21:31:56;;;;;;;3.73;2.77;;;;;;;5.99;57.91;101092.66;4956845;28;20065;-71
2022/05/21 21:34:21;;;;;;;6.47;2.83;;;;;;;6.07;59.02;101116.66;4956793;28;20442;-68
2022/05/21 21:36:50;;;;;;;4.10;3.50;;;;;;;5.80;58.31;101074.81;4956767;28;20043;-69
2022/05/21 21:39:16;;;;;;;;;;;;;;;6.01;58.62;101127.75;4939870;29;20038;-70
2022/05/21 21:41:41;;;;;;;6.93;4.17;;;;;;;5.82;58.88;101086.94;4956656;28;19918;-70
2022/05/21 21:44:07;;;;;;;5.63;3.83;;;;;;;5.92;58.34;101118.78;4956661;28;20031;-66
2022/05/21 21:46:32;;;;;;;4.70;3.97;;;;;;;5.86;58.74;101109.50;4956324;28;20036;-69
2022/05/21 21:48:58;;;;;;;5.50;3.97;;;;;;;5.66;58.93;101072.41;4939086;29;20043;-70
2022/05/21 21:51:23;;;;;;;5.87;4.67;;;;;;;5.91;59.17;101119.72;4938876;28;20035;-69
2022/05/21 21:53:49;;;;;;;7.17;4.60;;;;;;;5.82;58.64;101097.50;4956591;28;20094;-68
2022/05/21 21:56:14;;;;;;;6.17;3.83;;;;;;;5.62;59.06;101073.63;4956197;28;20042;-66
2022/05/21 22:01:24;;;;;;;6.20;3.90;;;;;;;5.92;59.55;101125.88;4956448;29;20074;-69
2022/05/21 22:03:51;;;;;;;5.37;4.17;;;;;;;5.92;59.33;101128.50;4924102;29;20318;-66
2022/05/21 22:06:17;;;;;;;6.57;3.97;;;;;;;5.93;59.56;101124.91;4957291;29;20039;-67
2022/05/21 22:08:43;;;;;;;7.50;4.33;;;;;;;5.85;59.76;101122.84;4956243;28;20062;-67
2022/05/21 22:11:12;;;;;;;6.03;4.10;;;;;;;5.84;59.63;101127.28;4955900;28;20134;-70
2022/05/21 22:13:37;;;;;;;4.47;3.65;;;;;;;5.87;59.79;101132.34;4939655;29;20039;-66
2022/05/21 22:16:03;;;;;;;7.77;3.97;;;;;;;5.74;60.25;101117.56;4955939;28;20138;-66
2022/05/21 22:18:28;;;;;;;4.90;3.40;;;;;;;5.71;60.04;101120.44;4938806;29;20083;-67
2022/05/21 22:20:55;;;;;;;3.83;3.37;;;;;;;5.81;60.67;101138.13;4955904;28;20043;-67
2022/05/21 22:23:20;;;;;;;3.83;3.03;;;;;;;5.73;60.69;101129.94;4956157;29;20039;-66
2022/05/21 22:25:46;;;;;;;4.90;3.07;;;;;;;5.69;61.09;101138.22;4956834;29;20041;-70
2022/05/21 22:28:12;;;;;;;3.63;3.10;;;;;;;5.59;61.39;101117.00;4938876;29;20031;-67
2022/05/21 22:30:38;;;;;;;4.33;2.93;;;;;;;5.65;61.28;101137.63;4955928;29;20425;-67
2022/05/21 22:33:07;;;;;;;7.97;3.13;;;;;;;5.64;61.55;101140.41;4955581;29;20443;-69
2022/05/21 22:35:33;;;;;;;3.60;3.03;;;;;;;5.58;61.19;101136.44;4955591;28;20090;-68
2022/05/21 22:37:59;;;;;;;6.50;3.20;;;;;;;5.51;61.40;101119.41;4956442;28;20043;-68
2022/05/21 22:40:26;;;;;;;4.00;3.20;;;;;;;5.14;61.51;101069.47;4939672;29;20202;-67
2022/05/21 22:42:52;;;;;;;5.17;3.60;;;;;;;5.34;61.51;101101.41;4955620;28;20039;-65
2022/05/21 22:45:17;;;;;;;5.47;3.40;;;;;;;5.43;61.83;101132.38;4954408;28;20321;-66
2022/05/21 22:47:44;;;;;;;4.50;2.77;;;;;;;4.52;61.64;100979.34;4955669;28;20039;-64
2022/05/21 22:50:10;;;;;;;5.87;3.40;;;;;;;5.35;61.63;101125.03;4955103;29;20074;-65
2022/05/21 22:52:38;;;;;;;4.23;3.00;;;;;;;5.26;61.70;101115.22;4955233;29;20058;-65
2022/05/21 22:55:12;;;;;;;3.77;3.03;;;;;;;5.27;61.70;101120.38;4955299;28;20309;-69
2022/05/21 22:57:38;;;;;;;3.83;3.30;;;;;;;4.89;61.30;101067.03;4937941;29;20039;-67
2022/05/21 23:00:08;;;;;;;4.03;3.10;;;;;;;5.13;61.90;101110.03;4955310;29;20074;-67
2022/05/21 23:02:34;;;;;;;7.30;4.00;;;;;;;5.26;62.02;101136.34;4954833;28;20053;-65
2022/05/21 23:05:00;;;;;;;4.87;3.60;;;;;;;5.27;62.32;101138.84;4953943;28;20129;-66
2022/05/21 23:07:28;;;;;;;5.93;3.33;;;;;;;5.26;62.16;101145.09;4954666;29;20059;-68
2022/05/21 23:09:57;;;;;;;6.47;3.92;;;;;;;5.03;62.61;101110.88;4952862;29;20682;-67
2022/05/21 23:12:23;;;;;;;4.32;3.42;;;;;;;5.15;62.26;101141.59;4954682;28;20506;-66
2022/05/21 23:20:21;;;;;;;5.40;3.00;;;;;;;5.10;62.58;101143.75;4955115;28;20315;-66
2022/05/21 23:22:47;;;;;;;5.40;3.67;;;;;;;5.07;62.55;101152.75;4955221;28;20301;-68
2022/05/21 23:25:14;;;;;;;7.13;3.73;;;;;;;5.09;62.73;101156.09;4959807;29;20283;-66
2022/05/21 23:27:39;;;;;;;4.67;3.00;;;;;;;5.12;62.30;101161.16;4965450;28;20039;-66
2022/05/21 23:30:07;;;;;;;9.07;3.60;;;;;;;4.66;62.35;101077.59;4966914;29;20293;-66
2022/05/21 23:32:33;;;;;;;4.30;3.17;;;;;;;4.86;61.82;101112.16;4967885;28;20046;-67
2022/05/21 23:34:58;;;;;;;4.50;3.00;;;;;;;5.07;62.19;101157.19;4959481;28;20275;-68
2022/05/21 23:37:24;;;;;;;6.30;2.93;;;;;;;5.05;61.82;101152.03;4957535;29;20071;-67
2022/05/21 23:39:49;;;;;;;2.90;2.50;;;;;;;5.04;61.50;101146.88;4954679;28;20074;-67
2022/05/21 23:42:15;;;;;;;2.63;2.23;;;;;;;5.02;62.02;101147.00;4954231;28;20039;-67
2022/05/21 23:44:41;;;;;;;3.47;2.57;;;;;;;4.86;61.99;101128.00;4954577;29;20043;-68
2022/05/21 23:47:09;;;;;;;4.80;2.90;;;;;;;4.94;62.51;101157.28;4959466;28;20042;-66
2022/05/21 23:49:36;;;;;;;4.28;2.70;;;;;;;4.92;63.00;101170.63;4957633;29;20035;-69
2022/05/21 23:52:03;;;;;;;5.93;3.00;;;;;;;4.83;63.04;101149.34;4954280;28;20038;-67
2022/05/21 23:54:29;;;;;;;4.07;2.87;;;;;;;4.76;63.47;101148.13;4954138;28;20274;-65
2022/05/21 23:56:57;;;;;;;4.43;2.80;;;;;;;4.84;63.30;101164.22;4954176;28;20271;-66
2022/05/21 23:59:28;;;;;;;6.57;3.17;;;;;;;4.84;63.54;101172.13;4954318;28;20325;-65
